createdAt,value
2022-08-22T00:02:22.828Z,100.00
2022-08-22T00:02:58.608Z,100.00
2022-08-22T00:03:12.288Z,100.00
2022-08-22T00:03:16.333Z,100.00
2022-08-22T00:05:24.182Z,100.00
2022-08-22T00:08:07.896Z,100.00
2022-08-22T00:10:42.711Z,100.00
2022-08-22T00:13:33.137Z,100.00
2022-08-22T00:16:17.882Z,100.00
2022-08-22T00:19:01.586Z,100.00
2022-08-22T00:21:46.004Z,100.00
2022-08-22T00:24:46.071Z,100.00
2022-08-22T00:27:21.540Z,100.00
2022-08-22T00:29:54.203Z,100.00
2022-08-22T00:32:40.276Z,100.00
2022-08-22T00:35:24.485Z,100.00
2022-08-22T00:38:02.977Z,100.00
2022-08-22T00:40:53.862Z,100.00
2022-08-22T00:43:54.395Z,100.00
2022-08-22T00:46:55.230Z,100.00
2022-08-22T00:49:59.176Z,100.00
2022-08-22T00:52:31.521Z,100.00
2022-08-22T00:55:17.536Z,100.00
2022-08-22T00:57:50.671Z,100.00
2022-08-22T01:00:24.192Z,100.00
2022-08-22T01:03:18.490Z,100.00
2022-08-22T01:05:47.549Z,100.00
2022-08-22T01:08:31.360Z,100.00
2022-08-22T01:11:17.747Z,100.00
2022-08-22T01:14:20.161Z,100.00
2022-08-22T01:17:07.295Z,100.00
2022-08-22T01:20:18.207Z,100.00
2022-08-22T01:23:03.531Z,100.00
2022-08-22T01:26:03.918Z,100.00
2022-08-22T01:28:36.415Z,100.00
2022-08-22T01:31:28.074Z,100.00
2022-08-22T01:34:30.531Z,100.00
2022-08-22T01:37:34.962Z,100.00
2022-08-22T01:40:31.121Z,100.00
2022-08-22T01:43:07.969Z,100.00
2022-08-22T01:45:52.395Z,100.00
2022-08-22T01:48:42.851Z,100.00
2022-08-22T01:51:24.657Z,100.00
2022-08-22T01:54:10.077Z,100.00
2022-08-22T01:56:44.067Z,100.00
2022-08-22T01:59:15.041Z,100.00
2022-08-22T02:01:49.860Z,100.00
2022-08-22T02:04:37.384Z,100.00
2022-08-22T02:07:14.177Z,100.00
2022-08-22T02:10:03.355Z,100.00
2022-08-22T02:12:43.234Z,100.00
2022-08-22T02:15:24.303Z,100.00
2022-08-22T02:18:06.075Z,100.00
2022-08-22T02:20:47.448Z,100.00
2022-08-22T02:23:51.734Z,100.00
2022-08-22T02:26:26.333Z,100.00
2022-08-22T02:29:07.884Z,100.00
2022-08-22T02:31:57.795Z,100.00
2022-08-22T02:34:53.786Z,100.00
2022-08-22T02:37:33.942Z,100.00
2022-08-22T02:40:13.426Z,100.00
2022-08-22T02:42:51.405Z,100.00
2022-08-22T02:45:24.250Z,100.00
2022-08-22T02:48:03.943Z,100.00
2022-08-22T02:51:06.245Z,100.00
2022-08-22T02:53:37.412Z,100.00
2022-08-22T02:56:14.752Z,100.00
2022-08-22T02:58:57.313Z,100.00
2022-08-22T03:01:33.997Z,100.00
2022-08-22T03:04:31.359Z,100.00
2022-08-22T03:07:07.493Z,100.00
2022-08-22T03:09:42.152Z,100.00
2022-08-22T03:12:28.772Z,100.00
2022-08-22T03:15:03.539Z,100.00
2022-08-22T03:17:36.944Z,100.00
2022-08-22T03:20:15.229Z,100.00
2022-08-22T03:22:48.703Z,100.00
2022-08-22T03:26:00.636Z,100.00
2022-08-22T03:28:37.587Z,100.00
2022-08-22T03:31:15.279Z,100.00
2022-08-22T03:33:43.512Z,100.00
2022-08-22T03:36:16.651Z,100.00
2022-08-22T03:39:07.290Z,100.00
2022-08-22T03:42:03.958Z,100.00
2022-08-22T03:45:04.261Z,100.00
2022-08-22T03:47:52.298Z,100.00
2022-08-22T03:50:56.265Z,100.00
2022-08-22T03:53:44.896Z,100.00
2022-08-22T03:56:36.088Z,100.00
2022-08-22T03:59:34.355Z,100.00
2022-08-22T04:02:42.338Z,100.00
2022-08-22T04:05:34.863Z,100.00
2022-08-22T04:08:23.046Z,100.00
2022-08-22T04:10:58.730Z,100.00
2022-08-22T04:14:07.455Z,100.00
2022-08-22T04:17:11.886Z,100.00
2022-08-22T04:19:44.255Z,100.00
2022-08-22T04:22:20.051Z,100.00
2022-08-22T04:25:09.074Z,100.00
2022-08-22T04:27:55.869Z,100.00
2022-08-22T04:30:33.445Z,100.00
2022-08-22T04:33:21.099Z,100.00
2022-08-22T04:36:15.255Z,100.00
2022-08-22T04:38:49.937Z,100.00
2022-08-22T04:41:41.754Z,100.00
2022-08-22T04:44:15.981Z,100.00
2022-08-22T04:46:52.631Z,100.00
2022-08-22T04:49:29.539Z,100.00
2022-08-22T04:52:22.184Z,100.00
2022-08-22T04:55:03.862Z,100.00
2022-08-22T04:57:36.296Z,100.00
2022-08-22T05:00:08.371Z,100.00
2022-08-22T05:02:38.284Z,100.00
2022-08-22T05:05:13.494Z,100.00
2022-08-22T05:07:46.746Z,100.00
2022-08-22T05:10:26.017Z,100.00
2022-08-22T05:13:01.335Z,100.00
2022-08-22T05:15:33.791Z,100.00
2022-08-22T05:18:08.054Z,100.00
2022-08-22T05:20:37.270Z,100.00
2022-08-22T05:23:17.156Z,100.00
2022-08-22T05:25:49.955Z,100.00
2022-08-22T05:28:33.714Z,100.00
2022-08-22T05:31:04.855Z,100.00
2022-08-22T05:33:42.815Z,100.00
2022-08-22T05:36:14.151Z,100.00
2022-08-22T05:38:47.716Z,100.00
2022-08-22T05:41:23.748Z,100.00
2022-08-22T05:43:52.498Z,100.00
2022-08-22T05:46:36.954Z,100.00
2022-08-22T05:49:11.376Z,100.00
2022-08-22T05:51:50.693Z,100.00
2022-08-22T05:54:33.771Z,100.00
2022-08-22T05:57:09.880Z,100.00
2022-08-22T05:59:41.130Z,100.00
2022-08-22T06:02:21.565Z,100.00
2022-08-22T06:04:59.791Z,100.00
2022-08-22T06:07:35.496Z,100.00
2022-08-22T06:10:15.350Z,100.00
2022-08-22T06:12:59.652Z,100.00
2022-08-22T06:15:47.245Z,100.00
2022-08-22T06:18:22.002Z,100.00
2022-08-22T06:20:52.429Z,100.00
2022-08-22T06:23:43.567Z,100.00
2022-08-22T06:26:20.919Z,100.00
2022-08-22T06:28:55.242Z,100.00
2022-08-22T06:31:32.367Z,100.00
2022-08-22T06:34:09.304Z,100.00
2022-08-22T06:36:39.088Z,100.00
2022-08-22T06:39:23.550Z,100.00
2022-08-22T06:42:16.513Z,100.00
2022-08-22T06:44:52.209Z,100.00
2022-08-22T06:47:24.959Z,100.00
2022-08-22T06:50:02.273Z,100.00
2022-08-22T06:52:32.903Z,100.00
2022-08-22T06:55:06.710Z,100.00
2022-08-22T06:57:49.842Z,100.00
2022-08-22T07:00:17.793Z,100.00
2022-08-22T07:02:48.794Z,100.00
2022-08-22T07:05:21.326Z,100.00
2022-08-22T07:07:52.997Z,100.00
2022-08-22T07:10:23.104Z,100.00
2022-08-22T07:12:54.121Z,100.00
2022-08-22T07:15:35.350Z,100.00
2022-08-22T07:18:09.877Z,100.00
2022-08-22T07:20:45.703Z,100.00
2022-08-22T07:23:25.389Z,100.00
2022-08-22T07:26:04.570Z,100.00
2022-08-22T07:28:51.449Z,100.00
2022-08-22T07:31:37.207Z,100.00
2022-08-22T07:34:18.137Z,100.00
2022-08-22T07:37:06.992Z,100.00
2022-08-22T07:39:41.471Z,100.00
2022-08-22T07:42:24.985Z,100.00
2022-08-22T07:45:01.508Z,100.00
2022-08-22T07:47:52.242Z,100.00
2022-08-22T07:50:24.533Z,99.33
2022-08-22T07:52:55.052Z,98.82
2022-08-22T07:55:25.961Z,100.00
2022-08-22T07:57:59.470Z,96.53
2022-08-22T08:00:31.784Z,92.41
2022-08-22T08:03:08.207Z,87.05
2022-08-22T08:05:36.986Z,89.53
2022-08-22T08:08:09.036Z,88.90
2022-08-22T08:10:42.372Z,91.80
2022-08-22T08:13:14.781Z,86.19
2022-08-22T08:15:45.354Z,86.54
2022-08-22T08:18:19.401Z,100.00
2022-08-22T08:21:00.070Z,96.56
2022-08-22T08:23:31.464Z,84.88
2022-08-22T08:27:00.427Z,89.90
2022-08-22T08:29:28.819Z,90.77
2022-08-22T08:31:56.608Z,83.47
2022-08-22T08:34:27.505Z,81.58
2022-08-22T08:37:00.319Z,83.87
2022-08-22T08:39:39.153Z,88.38
2022-08-22T08:42:20.867Z,83.84
2022-08-22T08:45:21.465Z,86.00
2022-08-22T08:48:08.000Z,70.82
2022-08-22T08:50:40.625Z,72.45
2022-08-22T08:53:33.560Z,77.11
2022-08-22T08:56:37.966Z,68.38
2022-08-22T08:59:44.089Z,73.09
2022-08-22T09:02:47.442Z,70.75
2022-08-22T09:05:25.994Z,76.72
2022-08-22T09:08:14.201Z,64.73
2022-08-22T09:11:09.969Z,62.14
2022-08-22T09:13:57.420Z,67.86
2022-08-22T09:16:51.774Z,63.39
2022-08-22T09:19:49.064Z,58.79
2022-08-22T09:22:50.057Z,67.39
2022-08-22T09:25:38.694Z,58.91
2022-08-22T09:28:28.385Z,55.16
2022-08-22T09:31:17.048Z,58.71
2022-08-22T09:34:17.256Z,57.89
2022-08-22T09:37:15.216Z,53.99
2022-08-22T09:39:55.474Z,60.81
2022-08-22T09:42:37.620Z,59.30
2022-08-22T09:45:37.914Z,57.50
2022-08-22T09:48:16.505Z,55.48
2022-08-22T09:51:31.948Z,50.67
2022-08-22T09:54:21.640Z,61.08
2022-08-22T09:56:54.581Z,53.88
2022-08-22T09:59:33.653Z,55.72
2022-08-22T10:02:22.320Z,49.34
2022-08-22T10:05:40.336Z,52.56
2022-08-22T10:08:28.653Z,53.59
2022-08-22T10:11:08.219Z,50.54
2022-08-22T10:13:56.586Z,45.00
2022-08-22T10:16:39.459Z,50.20
2022-08-22T10:19:32.667Z,47.69
2022-08-22T10:22:10.614Z,44.64
2022-08-22T10:25:10.323Z,42.46
2022-08-22T10:27:55.485Z,39.43
2022-08-22T10:30:33.012Z,37.84
2022-08-22T10:33:18.492Z,38.71
2022-08-22T10:36:04.914Z,42.31
2022-08-22T10:38:44.152Z,43.83
2022-08-22T10:41:46.729Z,43.03
2022-08-22T10:44:36.251Z,40.42
2022-08-22T10:47:15.747Z,41.68
2022-08-22T10:50:12.543Z,47.71
2022-08-22T10:52:47.684Z,46.88
2022-08-22T10:55:22.380Z,54.57
2022-08-22T10:57:54.092Z,58.58
2022-08-22T11:00:27.100Z,55.86
2022-08-22T11:03:21.897Z,52.45
2022-08-22T11:05:52.463Z,49.92
2022-08-22T11:08:22.372Z,51.24
2022-08-22T11:11:05.960Z,50.29
2022-08-22T11:14:06.893Z,47.80
2022-08-22T11:16:41.886Z,52.30
2022-08-22T11:19:34.734Z,56.82
2022-08-22T11:22:34.192Z,48.70
2022-08-22T11:25:29.299Z,46.64
2022-08-22T11:28:26.975Z,46.45
2022-08-22T11:31:03.599Z,55.87
2022-08-22T11:33:53.288Z,53.31
2022-08-22T11:36:41.392Z,50.21
2022-08-22T11:39:21.726Z,45.42
2022-08-22T11:42:21.871Z,43.17
2022-08-22T11:45:02.282Z,43.80
2022-08-22T11:47:33.607Z,44.83
2022-08-22T11:50:25.462Z,46.33
2022-08-22T11:53:15.402Z,47.23
2022-08-22T11:55:59.791Z,51.50
2022-08-22T11:58:55.498Z,56.35
2022-08-22T12:01:39.097Z,45.87
2022-08-22T12:04:31.518Z,44.67
2022-08-22T12:07:01.052Z,44.63
2022-08-22T12:09:43.324Z,39.59
2022-08-22T12:12:09.893Z,42.55
2022-08-22T12:14:47.661Z,41.27
2022-08-22T12:17:55.878Z,40.22
2022-08-22T12:20:52.781Z,37.16
2022-08-22T12:23:43.429Z,38.19
2022-08-22T12:26:32.823Z,36.67
2022-08-22T12:29:39.870Z,39.74
2022-08-22T12:32:49.115Z,38.00
2022-08-22T12:35:33.929Z,35.85
2022-08-22T12:38:28.822Z,31.64
2022-08-22T12:41:28.350Z,37.55
2022-08-22T12:44:29.587Z,34.05
2022-08-22T12:47:49.988Z,35.83
2022-08-22T12:50:43.677Z,31.05
2022-08-22T12:53:44.513Z,33.91
2022-08-22T12:56:42.243Z,32.76
2022-08-22T12:59:34.310Z,35.42
2022-08-22T13:02:15.770Z,37.19
2022-08-22T13:04:58.999Z,34.20
2022-08-22T13:07:33.398Z,31.07
2022-08-22T13:10:28.556Z,34.56
2022-08-22T13:12:58.073Z,33.79
2022-08-22T13:15:24.967Z,31.68
2022-08-22T13:17:52.190Z,30.29
2022-08-22T13:20:33.811Z,34.04
2022-08-22T13:23:05.407Z,33.22
2022-08-22T13:26:00.627Z,36.12
2022-08-22T13:28:31.002Z,37.75
2022-08-22T13:30:59.874Z,38.03
2022-08-22T13:33:33.613Z,37.60
2022-08-22T13:36:08.294Z,36.75
2022-08-22T13:38:48.233Z,36.33
2022-08-22T13:41:27.799Z,36.23
2022-08-22T13:44:09.194Z,36.49
2022-08-22T13:46:52.703Z,36.57
2022-08-22T13:49:36.888Z,38.25
2022-08-22T13:52:29.701Z,38.93
2022-08-22T13:55:12.215Z,39.47
2022-08-22T13:57:51.933Z,39.79
2022-08-22T14:00:25.427Z,39.57
2022-08-22T14:03:08.057Z,40.02
2022-08-22T14:05:43.089Z,42.12
2022-08-22T14:08:22.203Z,41.49
2022-08-22T14:11:02.114Z,42.00
2022-08-22T14:13:50.181Z,44.33
2022-08-22T14:16:24.416Z,46.19
2022-08-22T14:18:57.144Z,45.41
2022-08-22T14:21:45.279Z,45.10
2022-08-22T14:24:45.376Z,43.47
2022-08-22T14:27:16.012Z,45.00
2022-08-22T14:29:52.236Z,43.89
2022-08-22T14:32:23.298Z,44.61
2022-08-22T14:35:34.592Z,43.58
2022-08-22T14:38:38.739Z,43.80
2022-08-22T14:41:16.059Z,46.51
2022-08-22T14:44:01.739Z,46.78
2022-08-22T14:46:43.411Z,44.82
2022-08-22T14:49:49.186Z,46.02
2022-08-22T14:52:32.996Z,46.26
2022-08-22T14:55:20.729Z,45.09
2022-08-22T14:57:54.411Z,45.14
2022-08-22T15:00:45.873Z,44.96
2022-08-22T15:03:32.462Z,43.76
2022-08-22T15:06:12.809Z,43.88
2022-08-22T15:08:49.290Z,44.37
2022-08-22T15:11:18.487Z,43.29
2022-08-22T15:14:02.056Z,42.68
2022-08-22T15:16:38.005Z,42.71
2022-08-22T15:19:28.063Z,42.68
2022-08-22T15:22:27.548Z,42.53
2022-08-22T15:25:37.668Z,42.48
2022-08-22T15:28:20.096Z,41.93
2022-08-22T15:31:09.319Z,42.64
2022-08-22T15:33:48.799Z,42.36
2022-08-22T15:36:26.696Z,42.59
2022-08-22T15:39:17.199Z,42.38
2022-08-22T15:41:48.702Z,43.63
2022-08-22T15:44:32.566Z,43.20
2022-08-22T15:47:02.743Z,42.53
2022-08-22T15:49:34.920Z,43.22
2022-08-22T15:52:01.704Z,43.61
2022-08-22T15:54:54.553Z,44.51
2022-08-22T15:57:26.522Z,43.93
2022-08-22T15:59:57.628Z,42.92
2022-08-22T16:02:35.388Z,43.69
2022-08-22T16:05:22.455Z,43.66
2022-08-22T16:08:02.602Z,43.77
2022-08-22T16:10:40.147Z,44.36
2022-08-22T16:13:10.689Z,44.20
2022-08-22T16:15:55.921Z,44.23
2022-08-22T16:18:36.873Z,45.50
2022-08-22T16:21:10.544Z,46.70
2022-08-22T16:23:47.906Z,47.55
2022-08-22T16:26:22.273Z,46.87
2022-08-22T16:28:58.545Z,46.87
2022-08-22T16:31:35.610Z,47.53
2022-08-22T16:34:17.368Z,47.97
2022-08-22T16:37:08.977Z,47.62
2022-08-22T16:39:40.951Z,47.81
2022-08-22T16:42:18.212Z,47.83
2022-08-22T16:45:08.609Z,48.23
2022-08-22T16:47:40.138Z,49.65
2022-08-22T16:50:32.853Z,49.42
2022-08-22T16:53:14.375Z,50.33
2022-08-22T16:55:43.187Z,50.03
2022-08-22T16:58:18.939Z,51.38
2022-08-22T17:01:17.692Z,55.60
2022-08-22T17:04:08.246Z,57.80
2022-08-22T17:06:49.800Z,57.35
2022-08-22T17:09:35.175Z,58.23
2022-08-22T17:12:23.077Z,59.12
2022-08-22T17:14:54.701Z,58.42
2022-08-22T17:17:57.383Z,59.56
2022-08-22T17:20:47.386Z,61.13
2022-08-22T17:23:35.580Z,60.20
2022-08-22T17:26:39.033Z,61.19
2022-08-22T17:29:30.425Z,61.82
2022-08-22T17:32:22.068Z,61.94
2022-08-22T17:34:59.411Z,61.26
2022-08-22T17:37:36.136Z,60.98
2022-08-22T17:40:36.584Z,61.81
2022-08-22T17:43:14.070Z,63.10
2022-08-22T17:46:13.471Z,64.92
2022-08-22T17:49:02.538Z,68.30
2022-08-22T17:51:41.315Z,70.33
2022-08-22T17:54:30.317Z,71.36
2022-08-22T17:57:25.152Z,73.47
2022-08-22T18:00:24.947Z,74.92
2022-08-22T18:03:04.375Z,74.64
2022-08-22T18:06:00.955Z,74.43
2022-08-22T18:11:51.713Z,79.70
2022-08-22T18:14:38.413Z,81.92
2022-08-22T18:17:27.098Z,83.51
2022-08-22T18:20:08.503Z,85.55
2022-08-22T18:23:21.778Z,87.25
2022-08-22T18:26:36.697Z,89.48
2022-08-22T18:29:14.124Z,90.49
2022-08-22T18:31:49.054Z,90.99
2022-08-22T18:34:38.284Z,91.70
2022-08-22T18:37:37.601Z,93.07
2022-08-22T18:40:29.714Z,94.17
2022-08-22T18:43:13.773Z,94.18
2022-08-22T18:45:45.994Z,94.92
2022-08-22T18:48:36.896Z,95.99
2022-08-22T18:51:24.724Z,96.81
2022-08-22T18:53:56.881Z,96.97
2022-08-22T18:56:54.635Z,98.46
2022-08-22T18:59:36.296Z,98.91
2022-08-22T19:02:25.603Z,100.00
2022-08-22T19:05:18.359Z,100.00
2022-08-22T19:08:00.305Z,100.00
2022-08-22T19:11:05.522Z,100.00
2022-08-22T19:13:55.191Z,100.00
2022-08-22T19:16:43.421Z,100.00
2022-08-22T19:19:20.530Z,100.00
2022-08-22T19:22:22.063Z,100.00
2022-08-22T19:25:26.270Z,100.00
2022-08-22T19:28:14.265Z,100.00
2022-08-22T19:30:43.937Z,100.00
2022-08-22T19:33:25.623Z,100.00
2022-08-22T19:36:11.390Z,100.00
2022-08-22T19:39:04.804Z,100.00
2022-08-22T19:41:43.677Z,100.00
2022-08-22T19:44:13.373Z,100.00
2022-08-22T19:46:42.127Z,100.00
2022-08-22T19:49:30.523Z,100.00
2022-08-22T19:52:23.047Z,100.00
2022-08-22T19:55:07.025Z,100.00
2022-08-22T19:57:42.026Z,100.00
2022-08-22T20:00:13.610Z,100.00
2022-08-22T20:03:07.303Z,100.00
2022-08-22T20:06:05.923Z,100.00
2022-08-22T20:08:53.504Z,100.00
2022-08-22T20:11:51.450Z,100.00
2022-08-22T20:14:36.743Z,100.00
2022-08-22T20:17:14.153Z,100.00
2022-08-22T20:22:40.064Z,100.00
2022-08-22T20:25:06.441Z,100.00
2022-08-22T20:27:55.277Z,100.00
2022-08-22T20:30:50.143Z,100.00
2022-08-22T20:33:33.262Z,100.00
2022-08-22T20:36:06.973Z,100.00
2022-08-22T20:38:58.594Z,100.00
2022-08-22T20:41:41.362Z,100.00
2022-08-22T20:44:17.421Z,100.00
2022-08-22T20:46:53.179Z,100.00
2022-08-22T20:49:30.313Z,100.00
2022-08-22T20:52:10.501Z,100.00
2022-08-22T20:54:40.425Z,100.00
2022-08-22T20:57:18.531Z,100.00
2022-08-22T21:00:04.511Z,100.00
2022-08-22T21:02:51.563Z,100.00
2022-08-22T21:05:24.114Z,100.00
2022-08-22T21:08:13.010Z,100.00
2022-08-22T21:11:03.312Z,100.00
2022-08-22T21:13:34.293Z,100.00
2022-08-22T21:16:11.500Z,100.00
2022-08-22T21:18:41.748Z,100.00
2022-08-22T21:21:24.656Z,100.00
2022-08-22T21:24:01.675Z,100.00
2022-08-22T21:26:32.467Z,100.00
2022-08-22T21:29:04.406Z,100.00
2022-08-22T21:31:52.923Z,100.00
2022-08-22T21:34:24.658Z,100.00
2022-08-22T21:36:53.527Z,100.00
2022-08-22T21:39:24.162Z,100.00
2022-08-22T21:41:59.665Z,100.00
2022-08-22T21:44:33.430Z,100.00
2022-08-22T21:47:31.185Z,100.00
2022-08-22T21:50:13.278Z,100.00
2022-08-22T21:52:44.280Z,100.00
2022-08-22T21:55:29.990Z,100.00
2022-08-22T21:58:08.746Z,100.00
2022-08-22T22:00:53.481Z,100.00
2022-08-22T22:03:29.161Z,100.00
2022-08-22T22:05:58.921Z,100.00
2022-08-22T22:08:29.260Z,100.00
2022-08-22T22:11:00.894Z,100.00
2022-08-22T22:13:32.063Z,100.00
2022-08-22T22:15:59.968Z,100.00
2022-08-22T22:18:32.167Z,100.00
2022-08-22T22:20:59.209Z,100.00
2022-08-22T22:23:26.435Z,100.00
2022-08-22T22:25:55.662Z,100.00
2022-08-22T22:28:30.327Z,100.00
2022-08-22T22:31:00.150Z,100.00
2022-08-22T22:33:34.576Z,100.00
2022-08-22T22:36:15.300Z,100.00
2022-08-22T22:38:41.867Z,100.00
2022-08-22T22:41:10.672Z,100.00
2022-08-22T22:43:37.288Z,100.00
2022-08-22T22:46:04.625Z,100.00
2022-08-22T22:48:31.585Z,100.00
2022-08-22T22:50:58.054Z,100.00
2022-08-22T22:53:33.762Z,100.00
2022-08-22T22:56:06.091Z,100.00
2022-08-22T22:58:35.393Z,100.00
2022-08-22T23:01:28.617Z,100.00
2022-08-22T23:03:58.634Z,100.00
2022-08-22T23:06:35.261Z,100.00
2022-08-22T23:09:03.011Z,100.00
2022-08-22T23:11:33.025Z,100.00
2022-08-22T23:14:03.774Z,100.00
2022-08-22T23:16:35.202Z,100.00
2022-08-22T23:19:08.072Z,100.00
2022-08-22T23:21:34.387Z,100.00
2022-08-22T23:24:01.382Z,100.00
2022-08-22T23:26:31.917Z,100.00
2022-08-22T23:28:59.303Z,100.00
2022-08-22T23:31:36.381Z,100.00
2022-08-22T23:34:12.327Z,100.00
2022-08-22T23:36:41.977Z,100.00
2022-08-22T23:39:09.603Z,100.00
2022-08-22T23:41:38.328Z,100.00
2022-08-22T23:44:06.709Z,100.00
2022-08-22T23:46:35.966Z,100.00
2022-08-22T23:49:04.677Z,100.00
2022-08-22T23:51:31.381Z,100.00
2022-08-22T23:53:58.894Z,100.00
2022-08-22T23:56:29.952Z,100.00
2022-08-22T23:58:58.064Z,100.00
